createdAt,value
2018-11-04T00:00:18.666Z,18.73
2018-11-04T00:02:48.190Z,19.70
2018-11-04T00:05:17.460Z,21.40
2018-11-04T00:07:47.488Z,18.37
2018-11-04T00:10:16.329Z,17.33
2018-11-04T00:12:45.529Z,17.47
2018-11-04T00:15:14.681Z,18.20
2018-11-04T00:17:43.443Z,15.97
2018-11-04T00:20:14.210Z,16.67
2018-11-04T00:22:43.806Z,21.43
2018-11-04T00:25:14.030Z,16.83
2018-11-04T00:27:43.631Z,17.60
2018-11-04T00:30:18.374Z,17.23
2018-11-04T00:32:47.016Z,16.13
2018-11-04T00:35:15.507Z,14.25
2018-11-04T00:37:44.195Z,14.43
2018-11-04T00:40:12.994Z,14.60
2018-11-04T00:45:16.332Z,14.67
2018-11-04T00:47:44.799Z,14.40
2018-11-04T00:50:15.180Z,14.97
2018-11-04T00:52:44.206Z,14.93
2018-11-04T00:55:13.931Z,14.80
2018-11-04T00:57:42.816Z,13.83
2018-11-04T01:00:16.388Z,13.90
2018-11-04T01:02:45.985Z,15.70
2018-11-04T01:05:14.572Z,16.37
2018-11-04T01:07:43.088Z,14.47
2018-11-04T01:10:12.610Z,14.00
2018-11-04T01:12:42.446Z,16.50
2018-11-04T01:15:13.092Z,14.73
2018-11-04T01:17:42.458Z,14.83
2018-11-04T01:20:14.043Z,14.27
2018-11-04T01:25:17.677Z,14.37
2018-11-04T01:27:46.226Z,16.00
2018-11-04T01:30:17.608Z,15.43
2018-11-04T01:32:46.277Z,16.33
2018-11-04T01:35:14.956Z,14.57
2018-11-04T01:37:43.435Z,15.83
2018-11-04T01:40:12.039Z,16.67
2018-11-04T01:42:40.754Z,15.23
2018-11-04T01:45:11.255Z,16.00
2018-11-04T01:47:39.976Z,15.97
2018-11-04T01:50:10.969Z,18.67
2018-11-04T01:52:39.404Z,17.77
2018-11-04T01:55:09.513Z,16.23
2018-11-04T01:57:38.813Z,18.77
2018-11-04T02:00:11.601Z,16.82
2018-11-04T02:02:40.196Z,17.47
2018-11-04T02:05:10.614Z,15.87
2018-11-04T02:07:39.144Z,18.13
2018-11-04T02:10:09.017Z,17.73
2018-11-04T02:12:37.515Z,16.73
2018-11-04T02:15:08.534Z,17.82
2018-11-04T02:17:38.039Z,19.03
2018-11-04T02:20:08.253Z,17.87
2018-11-04T02:22:36.657Z,18.27
2018-11-04T02:25:05.739Z,17.47
2018-11-04T02:27:34.937Z,17.77
2018-11-04T02:30:03.815Z,20.37
2018-11-04T02:32:33.374Z,16.87
2018-11-04T02:35:01.887Z,19.23
2018-11-04T02:37:30.400Z,18.63
2018-11-04T02:39:59.092Z,18.37
2018-11-04T02:42:28.272Z,18.23
2018-11-04T02:44:56.854Z,18.33
2018-11-04T02:47:25.754Z,20.00
2018-11-04T02:49:54.900Z,18.77
2018-11-04T02:52:23.574Z,19.13
2018-11-04T02:54:52.108Z,19.13
2018-11-04T02:57:20.891Z,18.63
2018-11-04T02:59:49.583Z,19.27
2018-11-04T03:02:18.165Z,19.77
2018-11-04T03:04:46.769Z,18.87
2018-11-04T03:07:15.261Z,18.17
2018-11-04T03:09:44.521Z,17.80
2018-11-04T03:12:13.434Z,18.40
2018-11-04T03:14:41.931Z,18.40
2018-11-04T03:17:10.492Z,19.40
2018-11-04T03:19:40.129Z,20.33
2018-11-04T03:22:09.240Z,21.00
2018-11-04T03:24:38.183Z,19.33
2018-11-04T03:27:06.837Z,21.17
2018-11-04T03:29:36.231Z,19.27
2018-11-04T03:32:04.879Z,21.53
2018-11-04T03:34:33.492Z,20.50
2018-11-04T03:37:02.085Z,19.50
2018-11-04T03:39:30.488Z,19.63
2018-11-04T03:41:59.120Z,19.02
2018-11-04T03:44:27.643Z,19.47
2018-11-04T03:46:56.438Z,22.37
2018-11-04T03:49:24.898Z,22.23
2018-11-04T03:51:53.384Z,21.60
2018-11-04T03:54:22.022Z,21.43
2018-11-04T03:56:50.553Z,19.87
2018-11-04T03:59:19.109Z,21.40
2018-11-04T04:01:47.668Z,21.83
2018-11-04T04:04:16.325Z,19.27
2018-11-04T04:06:44.754Z,21.33
2018-11-04T04:09:14.663Z,20.40
2018-11-04T04:11:43.062Z,22.47
2018-11-04T04:14:11.488Z,19.67
2018-11-04T04:16:40.124Z,21.47
2018-11-04T04:19:09.232Z,19.07
2018-11-04T04:21:37.657Z,21.10
2018-11-04T04:24:06.438Z,20.13
2018-11-04T04:26:34.978Z,22.37
2018-11-04T04:29:03.515Z,22.83
2018-11-04T04:31:31.955Z,22.40
2018-11-04T04:34:05.864Z,23.27
2018-11-04T04:36:34.293Z,23.67
2018-11-04T04:39:06.897Z,23.87
2018-11-04T04:41:35.340Z,25.50
2018-11-04T04:44:03.903Z,22.50
2018-11-04T04:46:32.313Z,21.97
2018-11-04T04:49:01.175Z,25.00
2018-11-04T04:51:29.763Z,20.90
2018-11-04T04:53:58.421Z,24.53
2018-11-04T04:56:27.877Z,23.23
2018-11-04T04:58:56.430Z,24.40
2018-11-04T05:01:25.217Z,22.90
2018-11-04T05:04:00.149Z,21.80
2018-11-04T05:06:28.540Z,24.77
2018-11-04T05:08:57.381Z,20.23
2018-11-04T05:11:26.278Z,23.98
2018-11-04T05:13:56.565Z,22.57
2018-11-04T05:16:25.297Z,25.30
2018-11-04T05:18:53.861Z,22.90
2018-11-04T05:21:22.310Z,23.10
2018-11-04T05:23:50.772Z,22.07
2018-11-04T05:26:19.610Z,28.17
2018-11-04T05:28:48.188Z,24.03
2018-11-04T05:31:16.857Z,22.83
2018-11-04T05:33:45.368Z,25.50
2018-11-04T05:36:13.875Z,24.07
2018-11-04T05:38:42.494Z,25.13
2018-11-04T05:41:10.902Z,21.17
2018-11-04T05:43:39.319Z,24.83
2018-11-04T05:46:08.138Z,23.50
2018-11-04T05:48:36.540Z,26.03
2018-11-04T05:51:05.218Z,24.27
2018-11-04T05:53:33.945Z,25.47
2018-11-04T05:56:05.318Z,25.27
2018-11-04T05:58:33.837Z,23.17
2018-11-04T06:01:02.521Z,22.40
2018-11-04T06:03:31.013Z,23.43
2018-11-04T06:05:59.520Z,30.83
2018-11-04T06:08:27.942Z,25.33
2018-11-04T06:10:56.368Z,26.13
2018-11-04T06:13:25.550Z,28.83
2018-11-04T06:15:54.093Z,23.63
2018-11-04T06:18:23.441Z,23.53
2018-11-04T06:20:51.881Z,24.13
2018-11-04T06:23:20.576Z,27.10
2018-11-04T06:25:49.261Z,24.17
2018-11-04T06:28:18.421Z,25.90
2018-11-04T06:30:46.828Z,21.77
2018-11-04T06:33:15.336Z,27.60
2018-11-04T06:35:43.865Z,23.23
2018-11-04T06:38:12.965Z,21.50
2018-11-04T06:40:41.466Z,21.77
2018-11-04T06:43:11.047Z,23.57
2018-11-04T06:45:39.530Z,26.63
2018-11-04T06:48:08.049Z,24.37
2018-11-04T07:10:45.123Z,24.20
2018-11-04T07:13:13.570Z,23.90
2018-11-04T07:15:42.343Z,22.77
2018-11-04T07:18:10.774Z,23.80
2018-11-04T07:20:39.259Z,23.27
2018-11-04T07:23:07.811Z,24.90
2018-11-04T07:25:36.261Z,24.13
2018-11-04T07:28:05.012Z,23.53
2018-11-04T07:30:33.460Z,24.73
2018-11-04T07:33:01.855Z,22.80
2018-11-04T07:35:30.372Z,23.50
2018-11-04T07:37:58.775Z,25.10
2018-11-04T07:40:27.953Z,23.50
2018-11-04T07:42:56.418Z,25.50
2018-11-04T07:45:25.109Z,25.70
2018-11-04T07:47:53.674Z,24.90
2018-11-04T07:50:23.119Z,26.37
2018-11-04T07:52:51.688Z,25.03
2018-11-04T07:55:20.370Z,26.70
2018-11-04T07:57:49.043Z,23.43
2018-11-04T08:00:17.516Z,26.87
2018-11-04T08:02:46.141Z,24.43
2018-11-04T08:05:14.757Z,26.87
2018-11-04T08:07:43.362Z,26.70
2018-11-04T08:10:12.957Z,26.67
2018-11-04T08:12:41.603Z,28.87
2018-11-04T08:15:11.068Z,28.70
2018-11-04T08:17:40.398Z,26.17
2018-11-04T08:20:09.584Z,28.03
2018-11-04T08:22:38.733Z,26.80
2018-11-04T08:25:07.301Z,26.20
2018-11-04T08:27:36.750Z,24.80
2018-11-04T08:30:06.918Z,26.63
2018-11-04T08:32:35.521Z,24.43
2018-11-04T08:35:07.869Z,24.50
2018-11-04T08:37:36.492Z,24.33
2018-11-04T08:40:05.426Z,28.10
2018-11-04T08:42:33.822Z,27.20
2018-11-04T08:45:02.379Z,27.43
2018-11-04T08:47:31.121Z,29.33
2018-11-04T08:50:00.325Z,24.13
2018-11-04T08:52:28.899Z,24.50
2018-11-04T08:54:57.680Z,24.67
2018-11-04T08:57:26.267Z,27.37
2018-11-04T09:02:29.358Z,27.50
2018-11-04T09:05:01.653Z,27.67
2018-11-04T09:07:30.351Z,27.17
2018-11-04T09:10:02.493Z,25.63
2018-11-04T09:12:31.399Z,27.10
2018-11-04T09:15:00.044Z,25.47
2018-11-04T09:17:28.586Z,28.10
2018-11-04T09:19:58.192Z,27.90
2018-11-04T09:22:26.868Z,28.33
2018-11-04T09:27:30.561Z,27.83
2018-11-04T09:29:59.694Z,26.63
2018-11-04T09:32:28.794Z,26.73
2018-11-04T09:34:57.388Z,28.03
2018-11-04T09:37:25.816Z,28.77
2018-11-04T09:39:54.463Z,24.43
2018-11-04T09:42:23.116Z,25.57
2018-11-04T09:44:51.726Z,26.37
2018-11-04T09:47:20.264Z,26.43
2018-11-04T09:49:55.409Z,27.03
2018-11-04T09:52:23.893Z,30.40
2018-11-04T09:54:52.453Z,26.80
2018-11-04T09:57:24.797Z,26.60
2018-11-04T09:59:53.925Z,26.63
2018-11-04T10:02:22.591Z,29.97
2018-11-04T10:04:51.784Z,28.70
2018-11-04T10:07:20.359Z,28.10
2018-11-04T10:09:48.932Z,27.10
2018-11-04T10:12:17.883Z,30.17
2018-11-04T10:14:46.417Z,29.63
2018-11-04T10:17:15.690Z,26.47
2018-11-04T10:19:44.404Z,29.43
2018-11-04T10:22:12.905Z,26.63
2018-11-04T10:24:41.488Z,30.30
2018-11-04T10:27:09.970Z,26.80
2018-11-04T10:29:38.611Z,27.30
2018-11-04T10:32:07.241Z,24.87
2018-11-04T10:34:35.787Z,25.37
2018-11-04T10:37:04.354Z,28.23
2018-11-04T10:39:33.069Z,29.70
2018-11-04T10:42:01.661Z,26.27
2018-11-04T10:44:30.251Z,27.77
2018-11-04T10:46:58.894Z,31.07
2018-11-04T10:49:27.461Z,26.63
2018-11-04T10:51:56.052Z,28.67
2018-11-04T10:54:25.579Z,26.73
2018-11-04T10:56:54.334Z,27.30
2018-11-04T10:59:23.564Z,28.07
2018-11-04T11:01:52.008Z,29.53
2018-11-04T11:04:21.575Z,32.20
2018-11-04T11:06:50.079Z,31.30
2018-11-04T11:09:18.722Z,29.43
2018-11-04T11:11:47.308Z,33.00
2018-11-04T11:14:16.591Z,29.20
2018-11-04T11:16:45.463Z,30.43
2018-11-04T11:19:14.142Z,32.30
2018-11-04T11:21:42.789Z,28.80
2018-11-04T11:24:11.265Z,32.50
2018-11-04T11:26:40.069Z,28.53
2018-11-04T11:29:08.754Z,29.97
2018-11-04T11:31:37.213Z,31.67
2018-11-04T11:34:06.025Z,28.53
2018-11-04T11:36:34.982Z,28.73
2018-11-04T11:39:03.753Z,29.20
2018-11-04T11:41:33.601Z,28.40
2018-11-04T11:44:02.841Z,28.90
2018-11-04T11:46:31.425Z,28.27
2018-11-04T11:49:00.305Z,29.07
2018-11-04T11:51:29.157Z,28.10
2018-11-04T11:53:57.853Z,28.00
2018-11-04T11:56:27.664Z,31.60
2018-11-04T11:58:57.076Z,30.37
2018-11-04T12:01:25.790Z,26.63
2018-11-04T12:03:54.372Z,28.70
2018-11-04T12:06:22.962Z,26.97
2018-11-04T12:08:51.639Z,28.23
2018-11-04T12:11:20.129Z,27.23
2018-11-04T12:13:48.795Z,26.50
2018-11-04T12:16:17.940Z,27.57
2018-11-04T12:18:46.550Z,26.43
2018-11-04T12:21:15.192Z,26.80
2018-11-04T12:23:43.864Z,26.80
2018-11-04T12:26:12.761Z,27.70
2018-11-04T12:28:41.364Z,25.53
2018-11-04T12:31:09.834Z,27.93
2018-11-04T12:33:39.006Z,26.03
2018-11-04T12:36:07.741Z,27.23
2018-11-04T12:38:36.588Z,26.83
2018-11-04T12:41:05.674Z,26.07
2018-11-04T12:43:34.835Z,29.63
2018-11-04T12:46:03.805Z,28.27
2018-11-04T12:48:39.229Z,27.83
2018-11-04T12:51:13.652Z,28.03
2018-11-04T12:53:42.410Z,27.10
2018-11-04T12:56:11.008Z,25.60
2018-11-04T12:58:39.716Z,26.37
2018-11-04T13:01:09.188Z,25.83
2018-11-04T13:03:37.782Z,28.83
2018-11-04T13:06:06.703Z,27.27
2018-11-04T13:08:35.326Z,26.47
2018-11-04T13:11:03.826Z,27.80
2018-11-04T13:13:32.746Z,26.63
2018-11-04T13:16:01.291Z,26.97
2018-11-04T13:18:29.867Z,27.63
2018-11-04T13:20:58.450Z,26.03
2018-11-04T13:23:26.985Z,24.65
2018-11-04T13:25:56.195Z,25.57
2018-11-04T13:28:25.082Z,25.87
2018-11-04T13:30:53.663Z,26.27
2018-11-04T13:33:22.449Z,26.77
2018-11-04T13:35:50.922Z,26.27
2018-11-04T13:38:19.654Z,25.60
2018-11-04T13:40:54.688Z,24.97
2018-11-04T13:43:23.640Z,25.00
2018-11-04T13:45:52.173Z,27.13
2018-11-04T13:48:21.022Z,26.53
2018-11-04T13:50:49.649Z,24.77
2018-11-04T13:53:18.417Z,25.50
2018-11-04T13:55:47.057Z,26.47
2018-11-04T13:58:15.620Z,26.70
2018-11-04T14:00:44.126Z,24.93
2018-11-04T14:03:12.652Z,25.33
2018-11-04T14:05:41.401Z,27.13
2018-11-04T14:08:10.083Z,66.23
2018-11-04T14:10:39.365Z,81.50
2018-11-04T14:13:07.917Z,82.70
2018-11-04T14:15:38.342Z,86.50
2018-11-04T14:18:06.933Z,50.70
2018-11-04T14:20:35.875Z,28.80
2018-11-04T14:23:04.391Z,25.83
2018-11-04T14:25:36.247Z,26.60
2018-11-04T14:28:05.216Z,27.37
2018-11-04T14:30:33.825Z,30.00
2018-11-04T14:33:02.524Z,29.50
2018-11-04T14:35:31.320Z,26.20
2018-11-04T14:37:59.958Z,28.60
2018-11-04T14:40:32.387Z,28.97
2018-11-04T14:43:01.052Z,28.10
2018-11-04T14:45:29.657Z,28.23
2018-11-04T14:48:05.507Z,27.93
2018-11-04T14:50:34.300Z,29.53
2018-11-04T14:53:03.014Z,29.47
2018-11-04T14:55:31.620Z,28.70
2018-11-04T14:58:00.239Z,31.13
2018-11-04T15:00:33.404Z,28.40
2018-11-04T15:03:03.640Z,29.20
2018-11-04T15:05:32.481Z,28.90
2018-11-04T15:08:00.961Z,29.10
2018-11-04T15:10:29.509Z,28.47
2018-11-04T15:12:58.031Z,28.73
2018-11-04T15:15:26.685Z,31.50
2018-11-04T15:17:55.398Z,26.70
2018-11-04T15:20:24.036Z,27.60
2018-11-04T15:22:53.352Z,30.47
2018-11-04T15:25:22.889Z,29.50
2018-11-04T15:27:51.655Z,29.23
2018-11-04T15:30:20.428Z,30.23
2018-11-04T15:32:49.251Z,29.47
2018-11-04T15:35:18.499Z,30.20
2018-11-04T15:37:47.131Z,28.33
2018-11-04T15:40:17.646Z,30.70
2018-11-04T15:42:47.168Z,29.50
2018-11-04T15:45:16.455Z,28.73
2018-11-04T15:47:45.279Z,32.50
2018-11-04T15:50:15.565Z,29.30
2018-11-04T15:52:44.049Z,29.73
2018-11-04T15:55:12.668Z,30.27
2018-11-04T15:57:41.602Z,32.33
2018-11-04T16:00:13.441Z,30.03
2018-11-04T16:02:42.780Z,32.30
2018-11-04T16:07:45.846Z,29.37
2018-11-04T16:10:15.893Z,31.10
2018-11-04T16:12:44.641Z,36.17
2018-11-04T16:15:14.714Z,30.30
2018-11-04T16:17:43.949Z,32.73
2018-11-04T16:20:13.982Z,33.03
2018-11-04T16:22:43.327Z,31.40
2018-11-04T16:25:12.611Z,33.07
2018-11-04T16:27:41.642Z,34.23
2018-11-04T16:30:11.746Z,31.67
2018-11-04T16:32:41.222Z,31.77
2018-11-04T16:35:11.410Z,31.90
2018-11-04T16:37:41.575Z,31.63
2018-11-04T16:40:10.715Z,33.77
2018-11-04T16:42:39.556Z,38.30
2018-11-04T16:45:16.792Z,31.63
2018-11-04T16:47:45.492Z,33.07
2018-11-04T16:50:15.410Z,31.63
2018-11-04T16:52:45.337Z,29.83
2018-11-04T16:55:14.265Z,34.10
2018-11-04T16:57:43.382Z,36.20
2018-11-04T17:00:12.619Z,33.90
2018-11-04T17:02:41.178Z,30.10
2018-11-04T17:05:11.177Z,30.43
2018-11-04T17:07:39.988Z,30.20
2018-11-04T17:10:09.107Z,33.17
2018-11-04T17:12:37.869Z,29.97
2018-11-04T17:15:08.807Z,32.85
2018-11-04T17:17:37.320Z,32.77
2018-11-04T17:25:01.312Z,33.23
2018-11-04T17:27:33.494Z,33.70
2018-11-04T17:30:02.317Z,30.60
2018-11-04T17:35:05.153Z,36.20
2018-11-04T17:37:33.899Z,34.97
2018-11-04T17:40:02.788Z,36.00
2018-11-04T17:49:59.107Z,29.97
2018-11-04T17:52:28.288Z,30.80
2018-11-04T17:54:56.977Z,33.10
2018-11-04T17:57:25.725Z,33.30
2018-11-04T17:59:55.129Z,31.90
2018-11-04T18:02:23.917Z,33.70
2018-11-04T18:04:52.689Z,34.00
2018-11-04T18:07:21.192Z,34.73
2018-11-04T18:09:49.692Z,31.20
2018-11-04T18:12:19.108Z,30.10
2018-11-04T18:14:47.642Z,33.87
2018-11-04T18:17:16.286Z,33.30
2018-11-04T18:19:44.989Z,32.13
2018-11-04T18:22:13.651Z,32.90
2018-11-04T18:24:44.884Z,33.10
2018-11-04T18:27:13.344Z,34.40
2018-11-04T18:29:42.792Z,36.80
2018-11-04T18:32:13.915Z,32.20
2018-11-04T18:34:43.117Z,31.53
2018-11-04T18:37:11.761Z,31.93
2018-11-04T18:39:41.000Z,32.77
2018-11-04T18:42:09.734Z,30.13
2018-11-04T18:44:38.657Z,34.23
2018-11-04T18:47:07.684Z,35.60
2018-11-04T18:49:36.233Z,32.03
2018-11-04T18:52:05.231Z,32.73
2018-11-04T18:54:34.720Z,189.57
2018-11-04T18:57:04.331Z,148.03
2018-11-04T18:59:33.334Z,66.27
2018-11-04T19:02:02.543Z,48.70
2018-11-04T19:04:31.334Z,40.90
2018-11-04T19:07:00.061Z,33.23
2018-11-04T19:09:29.302Z,56.17
2018-11-04T19:11:58.095Z,31.67
2018-11-04T19:14:27.756Z,28.97
2018-11-04T19:16:56.718Z,29.00
2018-11-04T19:19:25.952Z,27.47
2018-11-04T19:21:55.398Z,28.80
2018-11-04T19:24:24.357Z,29.33
2018-11-04T19:26:53.091Z,30.93
2018-11-04T19:29:21.735Z,27.67
2018-11-04T19:31:51.481Z,28.40
2018-11-04T19:34:20.482Z,29.63
2018-11-04T19:39:23.512Z,29.97
2018-11-04T19:44:26.791Z,25.90
2018-11-04T19:46:55.303Z,26.10
2018-11-04T19:49:26.108Z,28.00
2018-11-04T19:52:06.397Z,27.77
2018-11-04T19:54:36.907Z,26.57
2018-11-04T19:57:05.714Z,27.57
2018-11-04T19:59:34.397Z,27.90
2018-11-04T20:02:03.171Z,27.53
2018-11-04T20:04:31.748Z,27.73
2018-11-04T20:07:00.241Z,29.83
2018-11-04T20:09:28.897Z,25.93
2018-11-04T20:11:58.302Z,26.87
2018-11-04T20:14:26.964Z,25.17
2018-11-04T20:16:55.600Z,25.30
2018-11-04T20:19:31.742Z,26.20
2018-11-04T20:22:00.220Z,25.63
2018-11-04T20:24:34.099Z,25.27
2018-11-04T20:27:02.678Z,25.60
2018-11-04T20:29:31.237Z,25.80
2018-11-04T20:32:05.311Z,27.97
2018-11-04T20:34:34.104Z,26.63
2018-11-04T20:37:02.885Z,25.90
2018-11-04T20:39:37.519Z,25.77
2018-11-04T20:42:06.582Z,26.23
2018-11-04T20:44:39.295Z,26.80
2018-11-04T20:47:07.949Z,25.60
2018-11-04T20:49:41.854Z,28.50
2018-11-04T20:52:10.696Z,28.67
2018-11-04T20:54:39.408Z,24.83
2018-11-04T20:57:13.080Z,25.87
2018-11-04T20:59:42.000Z,25.53
2018-11-04T21:02:10.973Z,28.03
2018-11-04T21:04:39.746Z,27.47
2018-11-04T21:07:09.232Z,24.77
2018-11-04T21:09:38.075Z,25.03
2018-11-04T21:12:07.224Z,26.80
2018-11-04T21:14:36.958Z,28.47
2018-11-04T21:17:05.882Z,28.10
2018-11-04T21:19:34.777Z,25.63
2018-11-04T21:22:03.410Z,24.30
2018-11-04T21:24:32.561Z,27.73
2018-11-04T21:27:01.207Z,27.17
2018-11-04T21:29:30.462Z,22.40
2018-11-04T21:31:58.653Z,26.57
2018-11-04T21:34:27.446Z,24.27
2018-11-04T21:36:55.932Z,25.07
2018-11-04T21:39:24.513Z,25.50
2018-11-04T21:41:56.074Z,29.97
2018-11-04T21:44:24.702Z,27.17
2018-11-04T21:46:53.386Z,23.80
2018-11-04T21:49:22.183Z,25.53
2018-11-04T21:51:51.554Z,26.80
2018-11-04T21:54:20.179Z,26.23
2018-11-04T21:56:49.113Z,23.37
2018-11-04T21:59:17.664Z,25.37
2018-11-04T22:01:46.245Z,24.67
2018-11-04T22:04:15.015Z,25.30
2018-11-04T22:06:44.148Z,23.47
2018-11-04T22:11:46.984Z,24.13
2018-11-04T22:14:15.736Z,23.40
2018-11-04T22:16:44.474Z,20.07
2018-11-04T22:19:13.069Z,21.43
2018-11-04T22:21:42.095Z,21.80
2018-11-04T22:24:10.649Z,21.13
2018-11-04T22:26:39.366Z,19.07
2018-11-04T22:29:08.374Z,19.03
2018-11-04T22:31:37.898Z,21.43
2018-11-04T22:34:07.335Z,20.93
2018-11-04T22:36:36.329Z,21.23
2018-11-04T22:39:06.614Z,22.20
2018-11-04T22:41:35.133Z,19.63
2018-11-04T22:44:04.757Z,22.27
2018-11-04T22:46:33.562Z,21.13
2018-11-04T22:49:02.965Z,20.60
2018-11-04T22:51:31.677Z,20.30
2018-11-04T22:54:00.462Z,22.77
2018-11-04T22:56:29.072Z,22.77
2018-11-04T22:58:57.805Z,22.97
2018-11-04T23:01:26.499Z,22.10
2018-11-04T23:03:55.065Z,22.70
2018-11-04T23:06:23.877Z,22.03
2018-11-04T23:08:52.472Z,22.67
2018-11-04T23:11:21.757Z,20.77
2018-11-04T23:13:50.320Z,23.50
2018-11-04T23:16:18.923Z,21.50
2018-11-04T23:18:47.544Z,20.37
2018-11-04T23:21:15.983Z,18.23
2018-11-04T23:23:44.462Z,19.50
2018-11-04T23:26:13.157Z,21.77
2018-11-04T23:28:42.806Z,20.50
2018-11-04T23:31:11.348Z,20.40
2018-11-04T23:33:39.826Z,20.47
2018-11-04T23:36:09.316Z,21.43
2018-11-04T23:38:37.954Z,19.80
2018-11-04T23:41:06.930Z,21.97
2018-11-04T23:43:36.228Z,22.30
2018-11-04T23:46:05.252Z,20.00
2018-11-04T23:48:33.784Z,20.60
2018-11-04T23:51:02.270Z,20.27
2018-11-04T23:53:31.231Z,21.37
2018-11-04T23:56:00.483Z,20.30
2018-11-04T23:58:29.037Z,19.43
